sensor_id;sensor_type;location;lat;lon;timestamp;pressure;altitude;pressure_sealevel;temperature;humidity
43691;BME280;29293;52.190;21.226;2022-08-27T00:12:26;100061.73;;;18.53;79.13
43691;BME280;29293;52.190;21.226;2022-08-27T00:27:32;100045.70;;;18.49;80.91
43691;BME280;29293;52.190;21.226;2022-08-27T00:42:38;100027.90;;;18.44;82.15
43691;BME280;29293;52.190;21.226;2022-08-27T00:57:49;100029.39;;;18.40;83.29
43691;BME280;29293;52.190;21.226;2022-08-27T01:12:57;100031.35;;;18.34;84.58
43691;BME280;29293;52.190;21.226;2022-08-27T01:28:05;100023.98;;;18.28;85.65
43691;BME280;29293;52.190;21.226;2022-08-27T01:43:11;100015.26;;;18.16;86.75
43691;BME280;29293;52.190;21.226;2022-08-27T01:58:18;100017.89;;;17.98;87.97
43691;BME280;29293;52.190;21.226;2022-08-27T02:13:27;100012.76;;;17.73;89.60
43691;BME280;29293;52.190;21.226;2022-08-27T02:28:34;100007.07;;;17.43;91.01
43691;BME280;29293;52.190;21.226;2022-08-27T02:43:40;100011.35;;;17.09;92.30
43691;BME280;29293;52.190;21.226;2022-08-27T02:58:46;100017.39;;;16.90;94.12
43691;BME280;29293;52.190;21.226;2022-08-27T03:13:53;100019.46;;;16.73;94.96
43691;BME280;29293;52.190;21.226;2022-08-27T03:28:59;100018.37;;;16.43;95.60
43691;BME280;29293;52.190;21.226;2022-08-27T03:44:05;100013.27;;;15.97;96.38
43691;BME280;29293;52.190;21.226;2022-08-27T03:59:11;100011.90;;;15.75;97.75
43691;BME280;29293;52.190;21.226;2022-08-27T04:14:19;100008.09;;;15.66;98.29
43691;BME280;29293;52.190;21.226;2022-08-27T04:29:25;100005.45;;;15.60;99.14
43691;BME280;29293;52.190;21.226;2022-08-27T04:44:33;100001.17;;;15.70;99.96
43691;BME280;29293;52.190;21.226;2022-08-27T04:59:39;100010.19;;;15.85;100.00
43691;BME280;29293;52.190;21.226;2022-08-27T05:14:44;100011.28;;;16.12;100.00
43691;BME280;29293;52.190;21.226;2022-08-27T05:29:50;100015.77;;;16.47;100.00
43691;BME280;29293;52.190;21.226;2022-08-27T05:44:56;100007.48;;;16.87;100.00
43691;BME280;29293;52.190;21.226;2022-08-27T06:00:03;100006.80;;;17.40;100.00
43691;BME280;29293;52.190;21.226;2022-08-27T06:15:27;100013.76;;;17.99;100.00
43691;BME280;29293;52.190;21.226;2022-08-27T06:30:33;100013.77;;;18.74;100.00
43691;BME280;29293;52.190;21.226;2022-08-27T06:45:39;100006.73;;;20.03;98.83
43691;BME280;29293;52.190;21.226;2022-08-27T07:00:45;100012.70;;;21.57;94.65
43691;BME280;29293;52.190;21.226;2022-08-27T07:15:51;100013.73;;;22.82;88.53
43691;BME280;29293;52.190;21.226;2022-08-27T07:30:57;100008.18;;;23.70;82.75
43691;BME280;29293;52.190;21.226;2022-08-27T07:46:03;100003.71;;;24.29;79.01
43691;BME280;29293;52.190;21.226;2022-08-27T08:01:09;100003.16;;;24.81;76.09
43691;BME280;29293;52.190;21.226;2022-08-27T08:16:16;100003.18;;;25.30;73.38
43691;BME280;29293;52.190;21.226;2022-08-27T08:31:22;99998.27;;;25.86;69.88
43691;BME280;29293;52.190;21.226;2022-08-27T08:46:32;99994.45;;;26.28;68.47
43691;BME280;29293;52.190;21.226;2022-08-27T09:01:41;99998.06;;;26.86;67.03
43691;BME280;29293;52.190;21.226;2022-08-27T09:16:48;99994.80;;;27.45;63.92
43691;BME280;29293;52.190;21.226;2022-08-27T09:31:59;99991.22;;;28.20;59.91
43691;BME280;29293;52.190;21.226;2022-08-27T09:47:13;99985.73;;;28.50;54.60
43691;BME280;29293;52.190;21.226;2022-08-27T10:02:24;99979.02;;;28.98;52.10
43691;BME280;29293;52.190;21.226;2022-08-27T10:17:41;99966.92;;;29.22;49.05
43691;BME280;29293;52.190;21.226;2022-08-27T10:48:45;99967.10;;;30.28;36.79
43691;BME280;29293;52.190;21.226;2022-08-27T11:03:57;99960.45;;;30.61;34.69
43691;BME280;29293;52.190;21.226;2022-08-27T11:46:41;99943.85;;;31.74;31.37
43691;BME280;29293;52.190;21.226;2022-08-27T12:01:48;99940.48;;;32.07;30.95
43691;BME280;29293;52.190;21.226;2022-08-27T12:17:02;99937.02;;;32.29;29.73
43691;BME280;29293;52.190;21.226;2022-08-27T12:32:24;99923.62;;;31.82;29.25
43691;BME280;29293;52.190;21.226;2022-08-27T12:47:37;99920.96;;;32.06;28.57
43691;BME280;29293;52.190;21.226;2022-08-27T13:18:26;99909.25;;;31.54;28.26
43691;BME280;29293;52.190;21.226;2022-08-27T13:33:34;99907.65;;;30.46;31.32
43691;BME280;29293;52.190;21.226;2022-08-27T13:48:43;99908.36;;;31.26;29.95
43691;BME280;29293;52.190;21.226;2022-08-27T14:03:57;99902.01;;;31.45;28.90
43691;BME280;29293;52.190;21.226;2022-08-27T14:19:09;99902.59;;;31.63;28.11
43691;BME280;29293;52.190;21.226;2022-08-27T14:34:16;99894.31;;;31.36;28.74
43691;BME280;29293;52.190;21.226;2022-08-27T14:49:25;99892.11;;;30.60;29.46
43691;BME280;29293;52.190;21.226;2022-08-27T15:04:32;99890.57;;;30.25;30.20
43691;BME280;29293;52.190;21.226;2022-08-27T15:19:39;99884.23;;;29.98;31.51
43691;BME280;29293;52.190;21.226;2022-08-27T15:34:45;99877.81;;;29.39;32.19
43691;BME280;29293;52.190;21.226;2022-08-27T15:49:51;99880.62;;;28.88;33.14
43691;BME280;29293;52.190;21.226;2022-08-27T16:04:57;99870.10;;;28.51;34.18
43691;BME280;29293;52.190;21.226;2022-08-27T16:20:04;99865.39;;;28.11;35.13
43691;BME280;29293;52.190;21.226;2022-08-27T16:35:11;99871.16;;;27.72;35.99
43691;BME280;29293;52.190;21.226;2022-08-27T16:50:19;99875.05;;;27.16;37.90
43691;BME280;29293;52.190;21.226;2022-08-27T17:05:40;99873.88;;;26.48;40.24
43691;BME280;29293;52.190;21.226;2022-08-27T17:20:46;99880.99;;;25.64;42.27
43691;BME280;29293;52.190;21.226;2022-08-27T17:35:52;99898.75;;;24.84;44.08
43691;BME280;29293;52.190;21.226;2022-08-27T17:50:58;99911.16;;;24.31;44.42
43691;BME280;29293;52.190;21.226;2022-08-27T18:06:05;99923.18;;;24.03;44.69
43691;BME280;29293;52.190;21.226;2022-08-27T18:21:11;99938.35;;;23.68;45.23
43691;BME280;29293;52.190;21.226;2022-08-27T18:54:43;99960.09;;;23.23;46.89
43691;BME280;29293;52.190;21.226;2022-08-27T19:09:49;99970.36;;;22.25;49.52
43691;BME280;29293;52.190;21.226;2022-08-27T20:32:06;99998.70;;;20.27;56.55
43691;BME280;29293;52.190;21.226;2022-08-27T20:47:12;100000.55;;;19.50;59.24
43691;BME280;29293;52.190;21.226;2022-08-27T21:02:23;100003.75;;;19.16;61.44
43691;BME280;29293;52.190;21.226;2022-08-27T21:17:30;99997.06;;;18.92;62.41
43691;BME280;29293;52.190;21.226;2022-08-27T21:32:36;99988.55;;;18.81;62.53
43691;BME280;29293;52.190;21.226;2022-08-27T21:47:42;99985.75;;;18.68;62.75
43691;BME280;29293;52.190;21.226;2022-08-27T22:02:48;99982.09;;;18.57;63.71
43691;BME280;29293;52.190;21.226;2022-08-27T22:17:57;99975.85;;;18.40;65.24
43691;BME280;29293;52.190;21.226;2022-08-27T22:33:03;99966.55;;;18.17;66.97
43691;BME280;29293;52.190;21.226;2022-08-27T22:48:09;99962.88;;;17.93;67.96
43691;BME280;29293;52.190;21.226;2022-08-27T23:03:15;99958.48;;;17.62;68.74
43691;BME280;29293;52.190;21.226;2022-08-27T23:18:22;99947.20;;;17.32;69.92
43691;BME280;29293;52.190;21.226;2022-08-27T23:33:28;99945.20;;;17.07;71.69
43691;BME280;29293;52.190;21.226;2022-08-27T23:48:34;99952.35;;;16.78;73.10
